»·PEaware :: N16RD 49X-L52

N16RD :: 49X-L52

FLIGHT INFORMATION

Flight Status: Arrived
Operator: Privately registered:
United States
More flights under this callsign
Pilot: Brett B. (12105)
Aircraft: CIRRUS SR-22
(SR22)
More flights by this aircraft type
Origin: 49X Chemehuevi Valley
United States
Destination: L52 Oceano Co
United States
More flights between these airports :: More routes between these airports
Route:
File this flight plan on PilotEdge
Remarks:
Altitude:
(Current/Filed)
14,500ft
Speed:
(Current/Filed)
175kts
Departed: 24-May-19 04:26 PM
Arrived: 24-May-19 05:16 PM
Distance/Time
Traveled:
307nm/0:49
Distance/Time
To Go:
Arrived

Flight Plot

Page will automatically refresh every two minutes.


Map Options




Map Legend


Flown Route
Filed Route
Departure Airport
Arrival Airport
Navaid (VOR, NDB)
Fix

Horizontal Profiles

Position Reports

Time Latitude Longitude Heading Altitude Ground
Speed
24-May-19 16:02 35.800506 -115.636067 134 2605ft 0kts
24-May-19 16:03 35.103851 -120.624966 123 50ft 0kts
24-May-19 16:04 35.103851 -120.624966 123 50ft 0kts
24-May-19 16:05 35.103851 -120.624966 123 50ft 0kts
24-May-19 16:06 35.103851 -120.624966 123 20ft 0kts
24-May-19 16:07 35.103851 -120.624966 123 20ft 0kts
24-May-19 16:08 35.103851 -120.624966 123 20ft 0kts
24-May-19 16:09 35.103850 -120.624964 123 20ft 0kts
24-May-19 16:10 35.103446 -120.624853 134 20ft 7kts
24-May-19 16:11 35.102029 -120.622331 139 20ft 4kts
24-May-19 16:12 35.100926 -120.622157 126 20ft 5kts
24-May-19 16:13 35.100250 -120.620863 123 20ft 3kts
24-May-19 16:14 35.099626 -120.619518 54 20ft 0kts
24-May-19 16:15 35.099627 -120.619516 54 20ft 0kts
24-May-19 16:16 35.099628 -120.619514 54 20ft 0kts
24-May-19 16:17 35.099813 -120.619324 4 20ft 2kts
24-May-19 16:18 35.099893 -120.619373 312 20ft 0kts
24-May-19 16:19 35.099895 -120.619376 312 20ft 0kts
24-May-19 16:20 35.099896 -120.619378 312 20ft 0kts
24-May-19 16:21 35.099898 -120.619380 313 20ft 0kts
24-May-19 16:22 35.099900 -120.619382 313 20ft 0kts
24-May-19 16:23 35.099901 -120.619384 314 20ft 0kts
24-May-19 16:24 35.099903 -120.619386 314 20ft 0kts
24-May-19 16:25 35.102781 -120.624581 305 69ft 200kts
24-May-19 16:26 35.198101 -120.760224 321 10171ft 673kts
24-May-19 16:27 35.370037 -120.814765 10 11720ft 647kts
24-May-19 16:28 35.499542 -120.714844 53 13040ft 642kts
24-May-19 16:29 35.547824 -120.522543 83 13448ft 564kts
24-May-19 16:30 35.557163 -120.325539 85 13471ft 697kts
24-May-19 16:31 35.573720 -120.090448 83 13452ft 692kts
24-May-19 16:33 35.592881 -119.855050 83 13449ft 692kts
24-May-19 16:34 35.610076 -119.651534 83 13467ft 692kts
24-May-19 16:35 35.625479 -119.471404 83 13472ft 691kts
24-May-19 16:36 35.644402 -119.255124 81 13475ft 690kts
24-May-19 16:37 35.741423 -119.058865 39 13494ft 687kts
24-May-19 16:38 35.868074 -118.883915 54 13498ft 690kts
24-May-19 16:39 35.973394 -118.686285 57 13498ft 690kts
24-May-19 16:40 36.062515 -118.479672 73 15087ft 679kts
24-May-19 16:41 36.090762 -118.250476 83 16895ft 672kts
24-May-19 16:42 36.105828 -118.019857 86 17487ft 679kts
24-May-19 16:43 36.119893 -117.779937 83 17487ft 741kts
24-May-19 16:44 36.151885 -117.521908 79 17483ft 767kts
24-May-19 16:45 36.190109 -117.271144 78 17482ft 714kts
24-May-19 16:46 36.228160 -117.032634 78 17485ft 703kts
24-May-19 16:47 36.266602 -116.795353 78 17497ft 700kts
24-May-19 16:48 36.305598 -116.559255 76 17505ft 700kts
24-May-19 16:49 36.363889 -116.329654 69 17499ft 699kts
24-May-19 16:50 36.432942 -116.104080 68 17492ft 700kts
24-May-19 16:51 36.504412 -115.877203 69 16036ft 713kts
24-May-19 16:52 36.559085 -115.639210 76 14250ft 719kts
24-May-19 16:53 36.587395 -115.392560 85 12465ft 722kts
24-May-19 16:54 36.599762 -115.163393 86 10944ft 745kts
24-May-19 16:54 36.606582 -115.007288 87 10488ft 442kts
24-May-19 16:56 36.631044 -114.832643 70 10464ft 446kts
24-May-19 16:56 36.666389 -114.721753 67 10469ft 409kts
24-May-19 16:57 36.719241 -114.564234 67 10264ft 374kts
24-May-19 16:59 36.731163 -114.440573 93 8203ft 280kts
24-May-19 16:59 36.728723 -114.365350 92 6706ft 243kts
24-May-19 17:00 36.728313 -114.285115 84 4862ft 216kts
24-May-19 17:01 36.738382 -114.219894 72 4498ft 185kts
24-May-19 17:02 36.758174 -114.141190 72 3988ft 310kts
24-May-19 17:03 36.797568 -114.070860 5 2769ft 183kts
24-May-19 17:04 36.831135 -114.057250 30 1956ft 20kts
24-May-19 17:05 36.831613 -114.057035 320 1956ft 0kts
24-May-19 17:06 36.830576 -114.058641 209 1956ft 24kts
24-May-19 17:07 36.827248 -114.060487 128 1956ft 5kts
24-May-19 17:08 36.827027 -114.060404 116 1956ft 2kts
24-May-19 17:09 36.827312 -114.061034 117 1956ft 0kts
24-May-19 17:10 36.827238 -114.060842 113 1956ft 0kts
24-May-19 17:11 36.827237 -114.060839 113 1956ft 0kts
24-May-19 17:12 36.827236 -114.060836 113 1956ft 0kts
24-May-19 17:13 36.827235 -114.060833 113 1956ft 0kts
24-May-19 17:14 36.827233 -114.060830 113 1956ft 0kts
24-May-19 17:15 35.103851 -120.624966 123 50ft 0kts
24-May-19 17:16 35.103851 -120.624966 123 50ft 0kts
24-May-19 17:17 35.103851 -120.624966 123 50ft 0kts
24-May-19 17:18 35.103851 -120.624966 123 20ft 0kts
24-May-19 17:19 35.103851 -120.624966 123 20ft 0kts
24-May-19 17:20 35.103851 -120.624966 123 20ft 0kts

Navigation Log

Ident Type
Flight plan parsing failed, navigation log unavailable